x

Stannard Rock, Mi (stdm4) Weather Station

8:00pm - Wed 22nd Oct 2014 All times are CDT. -5 hours from GMT.

  • Wind
    23mph, 24mph gusts
  • Air Temp 45°f
  • Sea Pressure 1023.9mb
  • Stannard Rock, Mi
  • Stannard Rock, Mi

More Historic Weather Station data

Upgrade to MSW Pro to gain access to the past 30 days of data for over 8000 Wavebouys and Weather Stations around the globe.

Join Pro

Comparision Forecast

View Surf forecast
   
Wed 10/22 8:00pm 23 24 mph 1023.9mb 45f
7:00pm 21 22 mph 1024mb 44f
6:00pm 23 25 mph 1023.9mb 43f
5:00pm 24 25 mph 1024.4mb 46f
4:00pm 20 22 mph 1025.1mb 44f
3:00pm 18 20 mph 1025.9mb 44f
2:00pm 21 22 mph 1026.7mb 43f
1:00pm 21 23 mph 1027.6mb 42f
12:00pm 18
mph
1028.5mb 41f
11:00am 17 18 mph 1028.8mb 41f
10:00am 16 17 mph 1029.1mb 40f
9:00am 15 16 mph 1029.1mb 40f
8:00am 18 20 mph 1028.9mb 40f
7:00am 20 21 mph 1028.5mb 40f
6:00am 16 17 mph 1028.4mb 41f
5:00am 11 13 mph 1028.4mb 41f
4:00am 10 11 mph 1028.1mb 41f
3:00am 11 13 mph 1027.8mb 41f
2:00am 10 11 mph 1027.7mb 40f
1:00am 10 11 mph 1027.8mb 40f
12:00am 8 9 mph 1027.7mb 40f
Tue 10/21 11:00pm 9 10 mph 1027.8mb 39f
10:00pm 9
mph
1027.7mb 38f
9:00pm 8
mph
1027.5mb 38f
8:00pm 6 7 mph 1027.4mb 38f
7:00pm 7 8 mph 1027.2mb 38f
6:00pm 6 8 mph 1027.1mb 38f
5:00pm 5 7 mph 1027mb 39f
4:00pm 7 8 mph 1026.9mb 39f
3:00pm 8 9 mph 1026.9mb 38f
2:00pm 7 8 mph 1026.8mb 38f
1:00pm 8 9 mph 1026.8mb 38f
12:00pm 9 10 mph 1027mb 39f
11:00am 8 9 mph 1027mb 39f
10:00am 14 15 mph 1026.3mb 40f
9:00am 16 17 mph 1025.8mb 40f
8:00am 16 17 mph 1024.8mb 40f
7:00am 15 16 mph 1024.3mb 40f
6:00am 16 18 mph 1023.6mb 40f
5:00am 17 20 mph 1022.9mb 40f
4:00am 20 21 mph 1022.3mb 40f
3:00am 17 18 mph 1021.5mb 40f
2:00am 22 23 mph 1021.1mb 41f
1:00am 22 23 mph 1020.2mb 41f
12:00am 23 24 mph 1020.2mb 41f
Mon 10/20 11:00pm 25 28 mph 1019.8mb 41f
10:00pm 26 29 mph 1019.2mb 41f
9:00pm 25 29 mph 1018.5mb 42f
8:00pm 26 28 mph 1017.9mb 42f
7:00pm 24 25 mph 1017.4mb 42f
6:00pm 23 26 mph 1016.3mb 43f
5:00pm 24 29 mph 1015.3mb 43f
4:00pm 26 29 mph 1013.9mb 43f
3:00pm 25 28 mph 1013.2mb 43f
2:00pm 24 26 mph 1012.4mb 43f
1:00pm 28 29 mph 1012.1mb 43f
12:00pm 24 25 mph 1011.9mb 44f
11:00am 24 28 mph 1011.4mb 44f
10:00am 23 26 mph 1011.1mb 44f
9:00am 23 25 mph 1010.5mb 44f
8:00am 23 25 mph 1010.2mb 44f
7:00am 22 24 mph 1009.5mb 44f
6:00am 21 23 mph 1009mb 44f
5:00am 23 26 mph 1008.4mb 44f
4:00am 22 24 mph 1008mb 44f
3:00am 17 18 mph 1007.5mb 44f
2:00am 20 21 mph 1007.4mb 45f
1:00am 16 17 mph 1007mb 45f
12:00am 13
mph
1006.8mb 47f
Sun 10/19 11:00pm 11 13 mph 1007mb 47f
10:00pm 16 17 mph 1007.1mb 46f
9:00pm 17
mph
1007.6mb 46f
8:00pm 17
mph
1008.2mb 45f
7:00pm 16
mph
1008.7mb 45f
6:00pm 21 22 mph 1008.5mb 45f
5:00pm 22 23 mph 1008.7mb 45f
4:00pm 22 24 mph 1009.3mb 45f
3:00pm 26 28 mph 1009.2mb 45f
2:00pm 22 23 mph 1011.1mb 43f
1:00pm 20 22 mph 1012.2mb 43f
12:00pm 18 20 mph 1013.9mb 42f
11:00am 21 22 mph 1014.8mb 41f
10:00am 22 23 mph 1015.7mb 40f
9:00am 21 22 mph 1016.5mb 40f
8:00am 21 23 mph 1017.1mb 40f
7:00am 22 24 mph 1017.6mb 39f
6:00am 18 21 mph 1018.4mb 39f
5:00am 16 18 mph 1019.4mb 39f
4:00am 11 13 mph 1019.9mb 39f
3:00am 11 13 mph 1020.1mb 38f